Time;durP1;ratioP1;P1;durP2;ratioP2;P2;SDS_P1;SDS_P2;PMS_P1;PMS_P2;Temp;Humidity;BMP_temperature;BMP_pressure;BME280_temperature;BME280_humidity;BME280_pressure;Samples;Min_cycle;Max_cycle;Signal;HPM_P1;HPM_P2
2023/07/15 00:01:18;;;;;;;24.27;22.48;;;19.80;99.90;;;;;;4973474;28;20137;-74
2023/07/15 00:03:46;;;;;;;24.67;22.77;;;19.90;99.90;;;;;;4973237;28;20523;-74
2023/07/15 00:06:14;;;;;;;24.35;22.23;;;19.80;99.90;;;;;;4975133;28;20615;-73
2023/07/15 00:08:41;;;;;;;24.40;22.63;;;19.80;99.90;;;;;;4975233;28;20054;-74
2023/07/15 00:11:37;;;;;;;23.15;21.55;;;19.90;99.90;;;;;;4990362;28;20520;-74
2023/07/15 00:14:17;;;;;;;23.65;21.95;;;19.90;99.90;;;;;;4974016;28;20047;-74
2023/07/15 00:16:44;;;;;;;24.00;22.20;;;19.90;99.90;;;;;;4976050;28;20050;-74
2023/07/15 00:19:11;;;;;;;24.75;22.48;;;20.00;99.90;;;;;;4972951;28;20608;-73
2023/07/15 00:21:39;;;;;;;23.92;22.13;;;20.10;99.90;;;;;;4977526;28;20046;-73
2023/07/15 00:24:07;;;;;;;24.58;22.73;;;20.10;99.90;;;;;;4979607;28;20034;-72
2023/07/15 00:26:34;;;;;;;23.67;22.00;;;20.10;99.90;;;;;;5000031;28;20076;-72
2023/07/15 00:29:03;;;;;;;24.58;22.65;;;20.10;99.90;;;;;;4997626;28;20064;-73
2023/07/15 00:31:34;;;;;;;24.08;22.27;;;20.10;99.90;;;;;;4984146;28;20736;-74
2023/07/15 00:34:02;;;;;;;24.00;22.15;;;20.10;99.90;;;;;;4992625;28;20552;-74
2023/07/15 00:36:31;;;;;;;23.75;21.95;;;20.10;99.90;;;;;;4977896;28;20061;-75
2023/07/15 00:38:58;;;;;;;23.98;22.20;;;20.10;99.90;;;;;;4976914;28;20058;-75
2023/07/15 00:41:31;;;;;;;24.08;22.30;;;20.10;99.90;;;;;;4973720;28;20069;-74
2023/07/15 00:43:59;;;;;;;23.43;21.50;;;20.10;99.90;;;;;;4975984;28;20065;-75
2023/07/15 00:47:00;;;;;;;24.25;22.15;;;20.20;99.90;;;;;;4976602;28;20046;-74
2023/07/15 00:49:33;;;;;;;23.48;21.77;;;20.20;99.90;;;;;;5001368;28;20081;-75
2023/07/15 00:52:20;;;;;;;24.63;22.55;;;20.20;99.90;;;;;;4974991;28;20484;-75
2023/07/15 00:54:51;;;;;;;24.63;22.63;;;20.20;99.90;;;;;;4977246;28;20045;-75
2023/07/15 00:57:18;;;;;;;24.52;22.65;;;20.30;99.90;;;;;;4975364;28;20050;-75
2023/07/15 00:59:46;;;;;;;25.10;22.85;;;20.30;99.90;;;;;;4992038;28;20050;-75
2023/07/15 01:02:13;;;;;;;24.55;22.65;;;20.20;99.90;;;;;;4974863;28;20042;-74
2023/07/15 01:04:40;;;;;;;24.67;22.65;;;20.20;99.90;;;;;;4982257;28;20065;-73
2023/07/15 01:07:07;;;;;;;24.13;22.42;;;20.20;99.90;;;;;;4972810;28;20296;-73
2023/07/15 01:09:36;;;;;;;24.33;22.63;;;20.20;99.90;;;;;;4986212;28;20051;-73
2023/07/15 01:12:04;;;;;;;25.42;23.30;;;20.20;99.90;;;;;;4988747;28;20038;-75
2023/07/15 01:14:30;;;;;;;24.70;22.90;;;20.20;99.90;;;;;;4975835;28;20514;-73
2023/07/15 01:16:57;;;;;;;24.95;22.95;;;20.10;99.90;;;;;;4976732;28;20043;-73
2023/07/15 01:19:24;;;;;;;24.65;22.90;;;20.10;99.90;;;;;;5003844;28;20146;-73
2023/07/15 01:21:51;;;;;;;24.75;22.73;;;20.10;99.90;;;;;;4976435;28;20041;-73
2023/07/15 01:24:21;;;;;;;24.52;22.77;;;20.00;99.90;;;;;;4974045;28;20137;-73
2023/07/15 01:26:53;;;;;;;24.23;22.42;;;20.00;99.90;;;;;;4973876;28;20043;-73
2023/07/15 01:29:20;;;;;;;24.65;22.75;;;19.90;99.90;;;;;;4963145;28;20057;-73
2023/07/15 01:31:47;;;;;;;25.30;23.38;;;19.90;99.90;;;;;;4976885;28;20050;-73
2023/07/15 01:34:14;;;;;;;25.35;23.25;;;19.80;99.90;;;;;;4972974;28;20046;-73
2023/07/15 01:36:41;;;;;;;25.10;23.20;;;19.80;99.90;;;;;;4973000;28;20043;-74
2023/07/15 01:39:09;;;;;;;24.67;22.75;;;19.70;99.90;;;;;;4972334;28;20516;-73
2023/07/15 01:41:36;;;;;;;24.75;22.70;;;19.70;99.90;;;;;;4976570;28;20065;-74
2023/07/15 01:44:04;;;;;;;25.17;23.20;;;19.60;99.90;;;;;;4971585;28;20062;-74
2023/07/15 01:46:31;;;;;;;24.40;22.60;;;19.60;99.90;;;;;;4972351;28;20052;-73
2023/07/15 01:49:02;;;;;;;24.55;22.80;;;19.60;99.90;;;;;;4978984;28;20058;-74
2023/07/15 01:51:30;;;;;;;23.50;21.85;;;19.60;99.90;;;;;;4975271;28;20677;-73
2023/07/15 01:53:58;;;;;;;24.40;22.42;;;19.60;99.90;;;;;;4979373;28;20069;-73
2023/07/15 01:56:25;;;;;;;24.48;22.75;;;19.60;99.90;;;;;;4976140;28;20066;-73
2023/07/15 01:58:52;;;;;;;24.45;22.65;;;19.60;99.90;;;;;;5009452;28;20481;-75
2023/07/15 02:01:20;;;;;;;23.98;22.23;;;19.60;99.90;;;;;;4978470;28;20101;-75
2023/07/15 02:03:46;;;;;;;24.02;22.20;;;19.50;99.90;;;;;;4976503;28;20051;-74
2023/07/15 02:06:14;;;;;;;25.15;22.92;;;19.50;99.90;;;;;;4976973;28;20071;-75
2023/07/15 02:08:44;;;;;;;24.00;22.30;;;19.40;99.90;;;;;;4981215;28;20101;-75
2023/07/15 02:11:11;;;;;;;25.10;23.10;;;19.40;99.90;;;;;;4976591;28;20046;-75
2023/07/15 02:13:38;;;;;;;24.42;22.60;;;19.40;99.90;;;;;;4975749;28;20051;-75
2023/07/15 02:16:05;;;;;;;23.92;22.23;;;19.40;99.90;;;;;;5010036;28;20666;-75
2023/07/15 02:18:31;;;;;;;24.50;22.70;;;19.30;99.90;;;;;;4981617;28;20038;-74
2023/07/15 02:20:58;;;;;;;23.95;22.17;;;19.30;99.90;;;;;;5011788;28;20042;-74
2023/07/15 02:23:25;;;;;;;24.48;22.58;;;19.40;99.90;;;;;;4977213;28;21580;-74
2023/07/15 02:25:51;;;;;;;24.67;22.88;;;19.40;99.90;;;;;;4984078;28;20041;-74
2023/07/15 02:28:20;;;;;;;24.55;22.52;;;19.40;99.90;;;;;;4974816;28;20161;-74
2023/07/15 02:30:47;;;;;;;24.60;22.88;;;19.30;99.90;;;;;;4981148;28;20049;-75
2023/07/15 02:33:14;;;;;;;25.20;23.20;;;19.20;99.90;;;;;;4978336;28;20555;-75
2023/07/15 02:35:40;;;;;;;24.65;22.73;;;19.30;99.90;;;;;;4979223;28;20042;-74
2023/07/15 02:38:07;;;;;;;24.00;22.30;;;19.10;99.90;;;;;;4974886;28;20081;-75
2023/07/15 02:40:34;;;;;;;24.40;22.60;;;18.90;99.90;;;;;;4976717;28;20100;-74
2023/07/15 02:43:01;;;;;;;24.42;22.73;;;18.70;99.90;;;;;;4977410;28;20038;-75
2023/07/15 02:45:27;;;;;;;26.17;24.00;;;18.70;99.90;;;;;;5008470;28;21309;-74
2023/07/15 02:47:54;;;;;;;24.67;22.98;;;18.40;99.90;;;;;;4979682;28;20050;-74
2023/07/15 02:50:21;;;;;;;25.45;23.48;;;18.20;99.90;;;;;;5002336;28;20169;-74
2023/07/15 02:52:48;;;;;;;25.40;23.30;;;18.10;99.90;;;;;;4982131;28;20076;-75
2023/07/15 02:55:15;;;;;;;25.50;23.70;;;18.00;99.90;;;;;;4977381;28;20038;-74
2023/07/15 02:57:42;;;;;;;25.13;23.23;;;18.00;99.90;;;;;;4984563;28;20052;-74
2023/07/15 03:00:13;;;;;;;24.60;22.80;;;18.00;99.90;;;;;;4975653;28;20042;-75
2023/07/15 03:02:40;;;;;;;24.65;22.98;;;17.90;99.90;;;;;;5000884;28;20050;-75
2023/07/15 03:05:08;;;;;;;25.50;23.70;;;17.80;99.90;;;;;;5007724;28;20050;-74
2023/07/15 03:07:35;;;;;;;26.00;23.88;;;17.80;99.90;;;;;;5017052;28;20049;-75
2023/07/15 03:10:03;;;;;;;26.15;24.02;;;17.80;99.90;;;;;;4998168;28;20111;-74
2023/07/15 03:12:29;;;;;;;25.80;23.80;;;17.80;99.90;;;;;;4997203;28;20108;-75
2023/07/15 03:14:56;;;;;;;26.15;24.25;;;17.70;99.90;;;;;;4996850;28;20042;-75
2023/07/15 03:17:23;;;;;;;25.77;23.88;;;17.60;99.90;;;;;;4995639;28;20099;-74
2023/07/15 03:19:50;;;;;;;24.85;22.92;;;17.60;99.90;;;;;;5001628;28;20516;-75
2023/07/15 03:22:17;;;;;;;26.25;24.17;;;17.60;99.90;;;;;;4996264;28;20034;-74
2023/07/15 03:24:45;;;;;;;24.45;22.75;;;17.50;99.90;;;;;;4995395;28;20038;-73
2023/07/15 03:27:13;;;;;;;24.50;22.70;;;17.60;99.90;;;;;;4996422;28;20045;-74
2023/07/15 03:29:40;;;;;;;24.48;22.67;;;17.60;99.90;;;;;;4999209;28;20046;-75
2023/07/15 03:32:07;;;;;;;29.40;27.50;;;17.50;99.90;;;;;;4995934;28;20038;-75
2023/07/15 03:34:34;;;;;;;24.52;22.83;;;17.40;99.90;;;;;;4998820;28;20812;-73
2023/07/15 03:37:00;;;;;;;25.10;23.17;;;17.50;99.90;;;;;;5001515;28;20049;-73
2023/07/15 03:39:28;;;;;;;24.27;22.58;;;17.40;99.90;;;;;;4997021;28;20053;-73
2023/07/15 03:41:54;;;;;;;25.05;23.08;;;17.40;99.90;;;;;;5000097;28;20041;-73
2023/07/15 03:44:21;;;;;;;24.65;22.90;;;17.50;99.90;;;;;;4994005;28;20046;-73
2023/07/15 03:46:48;;;;;;;25.33;23.17;;;17.40;99.90;;;;;;4997030;28;20042;-75
2023/07/15 03:49:15;;;;;;;24.60;22.80;;;17.50;99.90;;;;;;4998074;28;20040;-72
2023/07/15 03:51:42;;;;;;;25.00;23.10;;;17.60;99.90;;;;;;4999828;28;20049;-75
2023/07/15 03:54:08;;;;;;;29.50;27.42;;;17.70;99.90;;;;;;4998121;28;20046;-75
2023/07/15 03:56:35;;;;;;;29.35;27.25;;;17.60;99.90;;;;;;5001260;28;20038;-75
2023/07/15 03:59:02;;;;;;;29.55;27.27;;;17.60;99.90;;;;;;4999787;28;20045;-75
2023/07/15 04:01:30;;;;;;;28.50;26.55;;;17.60;99.90;;;;;;4999276;28;20053;-75
2023/07/15 04:03:56;;;;;;;29.48;27.58;;;17.60;99.90;;;;;;4997565;28;20034;-74
2023/07/15 04:06:23;;;;;;;28.65;26.55;;;17.80;99.90;;;;;;4994824;28;20042;-74
2023/07/15 04:08:50;;;;;;;27.92;25.90;;;17.80;99.90;;;;;;4996996;28;20822;-74
2023/07/15 04:11:17;;;;;;;28.40;26.48;;;17.90;99.90;;;;;;5002801;28;20041;-74
2023/07/15 04:13:45;;;;;;;27.63;25.73;;;18.00;99.90;;;;;;5017437;28;20056;-74
2023/07/15 04:16:12;;;;;;;28.40;26.40;;;17.90;99.90;;;;;;5011383;28;20042;-75
2023/07/15 04:18:42;;;;;;;28.48;26.38;;;18.00;99.90;;;;;;4998773;28;20333;-74
2023/07/15 04:21:09;;;;;;;28.30;25.95;;;18.10;99.90;;;;;;5010180;28;20042;-73
2023/07/15 04:23:36;;;;;;;28.15;26.05;;;18.00;99.90;;;;;;5007568;28;20046;-74
2023/07/15 04:26:03;;;;;;;27.75;25.77;;;18.10;99.90;;;;;;4996977;28;20038;-74
2023/07/15 04:28:29;;;;;;;27.80;25.77;;;18.10;99.90;;;;;;4997455;28;20157;-74
2023/07/15 04:30:56;;;;;;;27.85;25.95;;;18.20;99.90;;;;;;5002153;28;20034;-74
2023/07/15 04:33:23;;;;;;;27.33;25.52;;;18.20;99.90;;;;;;5005544;28;20042;-74
2023/07/15 04:35:50;;;;;;;27.70;25.80;;;18.30;99.90;;;;;;5019976;28;20064;-74
2023/07/15 04:38:20;;;;;;;28.55;26.15;;;18.30;99.90;;;;;;5014805;28;20280;-74
2023/07/15 04:40:46;;;;;;;27.15;25.40;;;18.30;99.90;;;;;;5006615;28;20038;-74
2023/07/15 04:43:13;;;;;;;28.20;26.02;;;18.40;99.90;;;;;;5001841;28;20516;-74
2023/07/15 04:45:40;;;;;;;29.20;26.92;;;18.50;99.90;;;;;;4997504;28;20045;-74
2023/07/15 04:48:07;;;;;;;28.30;26.42;;;18.60;99.90;;;;;;4996738;28;20451;-74
2023/07/15 04:50:33;;;;;;;28.20;26.20;;;18.60;99.90;;;;;;4993304;28;20077;-75
2023/07/15 04:53:00;;;;;;;28.48;26.33;;;18.70;99.90;;;;;;4995627;28;20050;-74
2023/07/15 04:55:27;;;;;;;26.73;25.00;;;18.80;99.90;;;;;;4994708;28;20042;-74
2023/07/15 04:57:54;;;;;;;28.25;26.25;;;18.90;99.90;;;;;;5000117;28;20122;-74
2023/07/15 05:00:21;;;;;;;27.40;25.35;;;19.20;99.90;;;;;;4992936;28;20042;-74
2023/07/15 05:02:49;;;;;;;29.73;27.73;;;19.40;99.90;;;;;;4997567;28;20567;-74
2023/07/15 05:05:16;;;;;;;28.83;26.92;;;19.50;99.90;;;;;;4979858;28;20077;-74
2023/07/15 05:07:43;;;;;;;28.45;26.58;;;19.50;99.90;;;;;;5002396;28;20489;-74
2023/07/15 05:10:24;;;;;;;29.38;26.83;;;19.60;99.90;;;;;;4998567;28;20224;-73
2023/07/15 05:12:51;;;;;;;28.55;26.65;;;19.80;99.90;;;;;;5000422;28;20041;-75
2023/07/15 05:15:18;;;;;;;28.00;26.05;;;20.20;99.90;;;;;;4992888;28;20038;-74
2023/07/15 05:17:44;;;;;;;27.80;25.80;;;20.50;99.90;;;;;;5000235;28;20113;-73
2023/07/15 05:20:13;;;;;;;27.15;25.27;;;20.80;99.90;;;;;;4999364;28;20045;-73
2023/07/15 05:22:41;;;;;;;27.08;25.17;;;21.20;99.90;;;;;;5002591;28;20061;-74
2023/07/15 05:25:09;;;;;;;26.92;24.90;;;21.70;99.90;;;;;;4998276;28;20508;-74
2023/07/15 05:27:40;;;;;;;27.27;25.48;;;22.00;99.90;;;;;;4997018;28;20090;-73
2023/07/15 05:30:11;;;;;;;28.45;26.45;;;22.20;99.90;;;;;;5013851;28;20046;-73
2023/07/15 05:32:38;;;;;;;27.80;25.88;;;22.50;99.90;;;;;;4994473;28;20107;-74
2023/07/15 05:35:05;;;;;;;27.63;25.83;;;22.60;99.90;;;;;;5000131;28;20037;-73
2023/07/15 05:37:32;;;;;;;28.10;25.85;;;22.90;99.90;;;;;;4995748;28;20800;-72
2023/07/15 05:39:59;;;;;;;27.75;26.05;;;23.10;99.90;;;;;;5012140;28;20691;-74
2023/07/15 05:42:26;;;;;;;27.73;25.80;;;23.30;99.90;;;;;;4995336;28;20042;-74
2023/07/15 05:44:52;;;;;;;28.77;26.48;;;23.30;99.90;;;;;;4999261;28;20046;-73
2023/07/15 05:47:19;;;;;;;28.60;26.50;;;23.50;99.90;;;;;;4994648;28;20139;-76
2023/07/15 05:49:47;;;;;;;27.90;26.00;;;23.20;99.90;;;;;;4999009;28;20042;-73
2023/07/15 05:52:13;;;;;;;28.88;26.38;;;23.10;99.90;;;;;;5013373;28;20038;-74
2023/07/15 05:54:40;;;;;;;27.45;25.55;;;23.30;99.90;;;;;;4996568;28;20050;-76
2023/07/15 05:57:07;;;;;;;27.40;25.67;;;23.50;99.90;;;;;;4999342;28;20056;-73
2023/07/15 05:59:34;;;;;;;27.75;25.88;;;23.80;99.90;;;;;;4995720;28;20045;-73
2023/07/15 06:02:00;;;;;;;28.67;26.63;;;24.00;99.90;;;;;;4995935;28;20148;-75
2023/07/15 06:04:27;;;;;;;28.08;26.13;;;24.40;99.90;;;;;;4996679;28;20046;-73
2023/07/15 06:06:54;;;;;;;28.60;26.70;;;24.70;99.90;;;;;;4999801;28;20639;-76
2023/07/15 06:09:20;;;;;;;30.65;28.60;;;24.80;99.90;;;;;;4994346;28;20658;-75
2023/07/15 06:11:47;;;;;;;30.73;28.83;;;25.00;99.90;;;;;;4997397;28;20054;-74
2023/07/15 06:14:14;;;;;;;31.17;29.17;;;24.80;99.90;;;;;;4998349;28;20447;-75
2023/07/15 06:16:41;;;;;;;32.80;30.70;;;24.90;99.90;;;;;;5012283;28;20044;-75
2023/07/15 06:19:08;;;;;;;31.63;29.48;;;24.70;99.90;;;;;;4999060;28;20049;-75
2023/07/15 06:21:36;;;;;;;32.63;30.58;;;24.70;99.90;;;;;;4995104;28;20042;-75
2023/07/15 06:24:03;;;;;;;32.90;31.00;;;24.30;99.90;;;;;;4996474;28;20075;-74
2023/07/15 06:26:30;;;;;;;34.33;32.03;;;24.50;99.90;;;;;;4995628;28;20099;-74
2023/07/15 06:28:57;;;;;;;33.70;31.63;;;24.70;99.90;;;;;;4998990;28;20054;-74
2023/07/15 06:31:24;;;;;;;33.28;31.23;;;24.90;99.90;;;;;;4995339;28;20042;-75
2023/07/15 06:33:51;;;;;;;33.05;30.90;;;24.90;99.90;;;;;;4995978;28;20129;-75
2023/07/15 06:36:19;;;;;;;34.80;32.70;;;24.90;99.90;;;;;;4995097;28;20065;-74
2023/07/15 06:38:46;;;;;;;34.25;32.05;;;25.10;99.90;;;;;;5009626;28;20042;-73
2023/07/15 06:41:13;;;;;;;33.70;31.85;;;25.40;99.90;;;;;;4998573;28;20042;-73
2023/07/15 06:43:41;;;;;;;36.28;34.28;;;25.60;99.90;;;;;;4995716;28;20053;-73
2023/07/15 06:46:08;;;;;;;36.03;33.92;;;25.40;99.90;;;;;;4994459;28;20467;-73
2023/07/15 06:48:34;;;;;;;36.50;34.30;;;25.40;99.90;;;;;;4996201;28;20571;-74
2023/07/15 06:51:01;;;;;;;35.72;33.83;;;25.40;99.90;;;;;;4995878;28;20054;-74
2023/07/15 06:53:28;;;;;;;37.42;35.42;;;25.40;99.90;;;;;;4995089;28;20061;-74
2023/07/15 06:55:55;;;;;;;36.40;34.25;;;25.40;99.90;;;;;;4981859;28;20076;-74
2023/07/15 06:58:39;;;;;;;36.80;34.65;;;25.50;99.90;;;;;;4996175;28;20077;-74
2023/07/15 07:01:10;;;;;;;36.63;34.28;;;25.40;99.90;;;;;;4994871;28;20034;-75
2023/07/15 07:03:37;;;;;;;37.10;34.67;;;25.30;99.90;;;;;;4994207;28;20041;-75
2023/07/15 07:06:04;;;;;;;36.72;34.75;;;25.30;99.90;;;;;;4994691;28;20610;-73
2023/07/15 07:08:31;;;;;;;38.10;36.00;;;25.50;99.90;;;;;;4995083;28;20050;-74
2023/07/15 07:10:57;;;;;;;36.40;34.28;;;25.40;99.90;;;;;;4997522;28;20038;-73
2023/07/15 07:13:24;;;;;;;37.22;35.13;;;25.40;99.90;;;;;;4993480;28;20042;-73
2023/07/15 07:15:51;;;;;;;35.42;33.53;;;25.50;99.90;;;;;;4994371;28;20039;-74
2023/07/15 07:18:17;;;;;;;35.30;33.50;;;25.70;99.90;;;;;;4993741;28;20049;-73
2023/07/15 07:20:44;;;;;;;36.88;34.90;;;25.70;99.90;;;;;;4992909;28;20522;-73
2023/07/15 07:23:11;;;;;;;35.03;33.08;;;25.90;99.90;;;;;;4996771;28;20058;-75
2023/07/15 07:25:41;;;;;;;35.28;33.35;;;26.00;99.90;;;;;;4994070;28;20692;-74
2023/07/15 07:28:08;;;;;;;36.85;34.45;;;26.10;99.90;;;;;;4998189;28;20052;-74
2023/07/15 07:30:35;;;;;;;37.40;35.10;;;26.30;99.90;;;;;;5008316;28;20038;-73
2023/07/15 07:33:02;;;;;;;35.53;33.50;;;26.10;99.90;;;;;;4996518;28;20065;-74
2023/07/15 07:35:29;;;;;;;36.83;34.55;;;26.10;99.90;;;;;;4994028;28;20129;-74
2023/07/15 07:37:57;;;;;;;37.35;35.13;;;26.30;99.90;;;;;;4995568;28;20042;-74
2023/07/15 07:40:23;;;;;;;40.25;37.60;;;26.30;99.90;;;;;;4995613;28;20050;-73
2023/07/15 07:42:50;;;;;;;40.83;38.17;;;26.40;99.90;;;;;;4994296;28;20053;-75
2023/07/15 07:45:17;;;;;;;37.38;34.78;;;26.60;99.90;;;;;;4995965;28;20056;-73
2023/07/15 07:47:44;;;;;;;37.13;34.92;;;26.90;99.90;;;;;;4992854;28;20053;-74
2023/07/15 07:50:11;;;;;;;41.60;39.10;;;26.60;99.90;;;;;;4994412;28;20088;-74
2023/07/15 07:52:38;;;;;;;36.35;34.35;;;26.30;99.90;;;;;;4992989;28;20042;-73
2023/07/15 07:55:05;;;;;;;37.47;35.28;;;26.00;99.90;;;;;;4996217;28;20093;-73
2023/07/15 07:57:32;;;;;;;35.97;33.88;;;26.00;99.90;;;;;;4993424;28;20034;-75
2023/07/15 07:59:59;;;;;;;34.97;32.92;;;26.10;99.90;;;;;;4997826;28;20041;-75
2023/07/15 08:02:25;;;;;;;40.53;38.08;;;26.00;99.90;;;;;;4992777;28;20050;-76
2023/07/15 08:04:52;;;;;;;34.35;32.25;;;25.90;99.90;;;;;;4996186;28;20145;-75
2023/07/15 08:07:19;;;;;;;33.58;31.67;;;26.10;99.90;;;;;;4997567;28;20137;-74
2023/07/15 08:09:46;;;;;;;34.83;32.75;;;26.10;99.90;;;;;;4994232;28;20080;-75
2023/07/15 08:12:12;;;;;;;33.42;31.33;;;26.10;99.90;;;;;;4994487;28;20034;-74
2023/07/15 08:14:39;;;;;;;33.90;31.73;;;26.20;99.90;;;;;;4993535;28;20484;-74
2023/07/15 08:17:06;;;;;;;34.47;32.03;;;26.20;99.90;;;;;;4996304;28;20072;-74
2023/07/15 08:19:32;;;;;;;35.33;33.10;;;26.20;99.90;;;;;;4995389;28;20069;-74
2023/07/15 08:22:00;;;;;;;42.20;39.83;;;26.30;99.90;;;;;;4997211;28;20575;-74
2023/07/15 08:24:26;;;;;;;37.60;35.50;;;26.70;99.90;;;;;;4994942;28;20440;-74
2023/07/15 08:26:53;;;;;;;39.70;37.25;;;27.10;99.90;;;;;;4994422;28;20528;-74
2023/07/15 08:29:23;;;;;;;39.33;37.13;;;27.30;99.90;;;;;;4995039;28;20050;-75
2023/07/15 08:31:50;;;;;;;37.45;35.05;;;27.50;99.90;;;;;;4993494;28;20501;-73
2023/07/15 08:34:17;;;;;;;35.42;33.13;;;27.60;99.90;;;;;;4996750;28;20641;-73
2023/07/15 08:36:43;;;;;;;36.65;34.55;;;27.60;99.90;;;;;;4993465;28;20092;-73
2023/07/15 08:39:10;;;;;;;37.58;35.28;;;27.50;99.90;;;;;;4994740;28;20042;-74
2023/07/15 08:41:38;;;;;;;40.95;38.47;;;27.30;99.90;;;;;;4991501;28;20052;-74
2023/07/15 08:44:05;;;;;;;37.58;35.30;;;27.30;99.90;;;;;;4996806;28;20511;-74
2023/07/15 08:46:32;;;;;;;36.97;34.83;;;27.60;99.90;;;;;;5015129;28;20101;-73
2023/07/15 08:49:02;;;;;;;41.45;39.05;;;27.80;99.90;;;;;;5022583;28;20060;-74
2023/07/15 08:51:34;;;;;;;37.38;35.17;;;28.10;99.90;;;;;;5006511;28;20042;-74
2023/07/15 08:54:03;;;;;;;36.08;33.50;;;28.40;99.90;;;;;;4999334;28;20052;-75
2023/07/15 08:56:31;;;;;;;36.63;34.40;;;28.30;99.90;;;;;;4995302;28;20046;-74
2023/07/15 08:58:58;;;;;;;34.65;32.55;;;28.10;99.90;;;;;;4994977;28;20034;-74
2023/07/15 09:01:25;;;;;;;37.47;35.22;;;27.90;99.90;;;;;;4995830;28;20125;-75
2023/07/15 09:03:52;;;;;;;38.72;36.53;;;27.70;99.90;;;;;;4990865;28;20030;-74
2023/07/15 09:06:19;;;;;;;37.28;35.00;;;27.40;99.90;;;;;;4997180;28;20042;-75
2023/07/15 09:08:50;;;;;;;38.78;36.28;;;27.10;99.90;;;;;;4994501;28;20426;-75
2023/07/15 09:11:17;;;;;;;39.83;37.22;;;26.80;99.90;;;;;;4995771;28;20108;-73
2023/07/15 09:13:44;;;;;;;39.20;37.00;;;26.60;99.90;;;;;;4996406;28;20497;-74
2023/07/15 09:16:13;;;;;;;38.75;36.60;;;26.50;99.90;;;;;;5000849;28;20068;-75
2023/07/15 09:18:40;;;;;;;38.33;36.28;;;26.30;99.90;;;;;;4996019;28;20104;-75
2023/07/15 09:21:16;;;;;;;37.78;34.92;;;26.10;99.90;;;;;;5001339;28;20129;-74
2023/07/15 09:23:44;;;;;;;37.50;35.45;;;25.90;99.90;;;;;;4995237;28;20109;-75
2023/07/15 09:26:12;;;;;;;36.50;34.50;;;25.50;99.90;;;;;;5000036;28;20046;-75
2023/07/15 09:28:42;;;;;;;35.63;33.42;;;25.40;99.90;;;;;;4997254;28;20096;-74
2023/07/15 09:31:09;;;;;;;35.53;33.00;;;25.20;99.90;;;;;;5000953;28;20511;-74
2023/07/15 09:33:39;;;;;;;30.60;28.63;;;25.10;99.90;;;;;;4997367;28;20030;-73
2023/07/15 09:36:07;;;;;;;31.27;29.20;;;24.90;99.90;;;;;;5002157;28;20078;-76
2023/07/15 09:38:38;;;;;;;31.88;29.75;;;24.70;99.90;;;;;;4998883;28;20048;-74
2023/07/15 09:41:08;;;;;;;31.92;29.73;;;24.60;99.90;;;;;;4999046;28;20070;-74
2023/07/15 09:43:56;;;;;;;33.45;31.13;;;24.50;99.90;;;;;;4995852;28;20482;-74
2023/07/15 09:46:23;;;;;;;31.85;29.77;;;24.20;99.90;;;;;;4997610;28;20069;-74
2023/07/15 09:48:51;;;;;;;31.20;29.17;;;24.00;99.90;;;;;;4995058;28;20049;-76
2023/07/15 09:51:18;;;;;;;33.80;31.70;;;23.70;99.90;;;;;;4996763;28;20049;-74
2023/07/15 09:53:54;;;;;;;35.72;33.47;;;23.50;99.90;;;;;;4996794;28;20805;-74
2023/07/15 09:56:29;;;;;;;40.53;38.03;;;23.30;99.90;;;;;;4999927;28;20045;-74
2023/07/15 09:59:04;;;;;;;40.45;37.60;;;23.00;99.90;;;;;;5005520;28;20042;-74
2023/07/15 10:01:37;;;;;;;41.33;38.63;;;22.80;99.90;;;;;;5002263;28;20030;-74
2023/07/15 10:04:25;;;;;;;34.25;31.95;;;22.50;99.90;;;;;;5006152;28;20144;-74
2023/07/15 10:06:52;;;;;;;37.90;35.38;;;22.30;99.90;;;;;;5000162;28;20052;-74
2023/07/15 10:09:19;;;;;;;35.58;32.88;;;22.10;99.90;;;;;;4999510;28;20049;-75
2023/07/15 10:11:48;;;;;;;32.10;29.95;;;21.90;99.90;;;;;;4998494;28;20040;-76
2023/07/15 10:14:15;;;;;;;31.00;28.75;;;21.70;99.90;;;;;;5014818;28;20103;-76
2023/07/15 10:16:45;;;;;;;31.90;29.58;;;21.50;99.90;;;;;;4997839;28;20547;-75
2023/07/15 10:19:47;;;;;;;31.83;29.33;;;21.40;99.90;;;;;;4997884;28;20046;-76
2023/07/15 10:22:18;;;;;;;28.08;26.05;;;21.30;99.90;;;;;;5001071;28;20682;-74
2023/07/15 10:24:56;;;;;;;27.83;26.08;;;21.20;99.90;;;;;;4993929;28;20059;-75
2023/07/15 10:27:30;;;;;;;26.70;24.70;;;21.20;99.90;;;;;;4998203;28;20038;-75
2023/07/15 10:30:17;;;;;;;26.30;24.42;;;21.30;99.90;;;;;;4977366;28;20061;-76
2023/07/15 10:33:07;;;;;;;25.60;23.80;;;21.30;99.90;;;;;;4996983;28;20125;-76
2023/07/15 10:35:41;;;;;;;24.13;22.10;;;21.30;99.90;;;;;;5003905;28;20038;-77
2023/07/15 10:38:28;;;;;;;22.50;21.02;;;21.30;99.90;;;;;;4983884;28;20747;-77
2023/07/15 10:41:04;;;;;;;21.90;20.52;;;21.20;99.90;;;;;;4990969;28;22733;-76
2023/07/15 10:43:34;;;;;;;21.88;20.27;;;21.20;99.90;;;;;;4987938;28;20548;-76
2023/07/15 10:46:09;;;;;;;21.52;20.10;;;21.40;99.90;;;;;;4978618;28;20046;-76
2023/07/15 10:48:38;;;;;;;18.73;17.40;;;21.50;99.90;;;;;;4983319;28;20444;-77
2023/07/15 10:51:11;;;;;;;18.77;17.58;;;21.60;99.90;;;;;;4984196;28;20543;-76
2023/07/15 10:53:38;;;;;;;21.08;19.48;;;21.70;99.90;;;;;;4981185;28;20042;-75
2023/07/15 10:56:06;;;;;;;18.20;17.00;;;21.60;99.90;;;;;;4980214;28;20057;-75
2023/07/15 10:58:35;;;;;;;21.15;19.45;;;21.70;99.90;;;;;;4983202;28;20085;-75
2023/07/15 11:01:04;;;;;;;20.13;18.92;;;21.70;99.90;;;;;;4984331;28;20077;-76
2023/07/15 11:03:34;;;;;;;22.08;20.88;;;21.80;99.90;;;;;;4981816;28;20523;-75
2023/07/15 11:06:02;;;;;;;23.58;22.02;;;21.80;99.90;;;;;;4984344;28;20065;-75
2023/07/15 11:08:29;;;;;;;21.00;19.65;;;21.80;99.90;;;;;;4984134;28;20042;-75
2023/07/15 11:11:01;;;;;;;21.55;20.00;;;21.80;99.90;;;;;;4978699;28;20054;-75
2023/07/15 11:13:28;;;;;;;19.33;18.17;;;21.90;99.90;;;;;;4985015;28;20534;-75
2023/07/15 11:15:56;;;;;;;19.73;18.45;;;22.00;99.90;;;;;;4980026;28;20030;-75
2023/07/15 11:18:25;;;;;;;22.65;21.17;;;21.90;99.90;;;;;;4980457;28;20042;-75
2023/07/15 11:20:54;;;;;;;22.85;21.55;;;21.80;99.90;;;;;;4983627;28;20054;-75
2023/07/15 11:23:21;;;;;;;24.52;23.13;;;21.70;99.90;;;;;;4987948;28;20054;-73
2023/07/15 11:25:48;;;;;;;22.30;20.75;;;21.70;99.90;;;;;;4964698;28;20041;-76
2023/07/15 11:28:18;;;;;;;21.58;20.25;;;21.90;99.90;;;;;;4990511;28;20053;-76
2023/07/15 11:30:47;;;;;;;22.55;21.10;;;21.90;99.90;;;;;;4985433;28;20173;-76
2023/07/15 11:33:15;;;;;;;21.13;19.92;;;21.90;99.90;;;;;;4995310;28;20046;-76
2023/07/15 11:35:43;;;;;;;21.00;19.42;;;21.80;99.90;;;;;;4981189;28;20042;-75
2023/07/15 11:38:14;;;;;;;18.55;17.23;;;21.70;99.90;;;;;;4980653;28;20108;-76
2023/07/15 11:40:54;;;;;;;18.60;17.40;;;21.60;99.90;;;;;;4973573;28;20090;-76
2023/07/15 11:43:24;;;;;;;19.13;18.02;;;21.60;99.90;;;;;;4982647;28;20076;-75
2023/07/15 11:45:55;;;;;;;19.17;17.92;;;21.40;99.90;;;;;;4979880;28;20061;-74
2023/07/15 11:48:24;;;;;;;20.65;19.15;;;21.40;99.90;;;;;;4978280;28;20054;-74
2023/07/15 11:50:55;;;;;;;18.75;17.73;;;21.30;99.90;;;;;;4978820;28;20050;-75
2023/07/15 11:53:33;;;;;;;19.23;17.83;;;21.30;99.90;;;;;;4966547;28;20038;-75
2023/07/15 11:56:00;;;;;;;15.18;14.32;;;21.20;99.90;;;;;;5014838;28;20042;-75
2023/07/15 11:58:53;;;;;;;15.23;14.23;;;21.30;99.90;;;;;;4984491;28;20070;-74
2023/07/15 12:01:24;;;;;;;14.05;13.25;;;21.40;99.90;;;;;;4977379;28;20046;-73
2023/07/15 12:03:52;;;;;;;15.55;14.63;;;21.30;99.90;;;;;;4977896;28;20249;-74
2023/07/15 12:06:22;;;;;;;14.95;14.02;;;21.20;99.90;;;;;;4985413;28;20414;-74
2023/07/15 12:09:05;;;;;;;17.75;16.23;;;21.30;99.90;;;;;;4977206;28;20121;-75
2023/07/15 12:11:33;;;;;;;19.25;18.05;;;21.30;99.90;;;;;;4979493;28;20057;-75
2023/07/15 12:14:02;;;;;;;18.77;17.73;;;21.30;99.90;;;;;;4979843;28;20100;-74
2023/07/15 12:16:31;;;;;;;18.25;17.25;;;21.30;99.90;;;;;;4981616;28;20042;-75
2023/07/15 12:19:00;;;;;;;17.38;16.38;;;21.30;99.90;;;;;;4981078;28;20042;-75
2023/07/15 12:21:27;;;;;;;18.10;16.90;;;21.30;99.90;;;;;;4987455;28;20040;-74
2023/07/15 12:23:58;;;;;;;18.05;17.05;;;21.30;99.90;;;;;;4994121;28;20113;-73
2023/07/15 12:26:26;;;;;;;16.75;15.70;;;21.20;99.90;;;;;;4988004;28;20046;-74
2023/07/15 12:28:52;;;;;;;17.02;15.85;;;21.20;99.90;;;;;;4984218;28;20037;-75
2023/07/15 12:31:19;;;;;;;17.00;16.10;;;21.00;99.90;;;;;;4979991;28;20044;-75
2023/07/15 12:33:46;;;;;;;16.40;15.27;;;21.10;99.90;;;;;;4980000;28;20061;-76
2023/07/15 12:36:15;;;;;;;17.45;16.38;;;21.10;99.90;;;;;;4982225;28;20557;-74